createdAt,value
2023-02-14T00:03:17.630Z,102386.97
2023-02-14T00:08:19.036Z,102388.88
2023-02-14T00:13:20.453Z,102393.16
2023-02-14T00:18:21.968Z,102382.78
2023-02-14T00:23:23.396Z,102383.03
2023-02-14T00:28:24.831Z,102383.22
2023-02-14T00:33:26.343Z,102381.41
2023-02-14T00:38:27.773Z,102375.47
2023-02-14T00:43:29.457Z,102369.44
2023-02-14T00:48:30.905Z,102368.56
2023-02-14T00:53:32.365Z,102384.69
2023-02-14T00:58:34.118Z,102373.22
2023-02-14T01:03:36.139Z,102369.31
2023-02-14T01:08:38.073Z,102375.19
2023-02-14T01:13:40.605Z,102384.09
2023-02-14T01:18:42.652Z,102387.13
2023-02-14T01:23:45.271Z,102389.06
2023-02-14T01:28:46.928Z,102392.44
2023-02-14T01:33:49.759Z,102394.25
2023-02-14T01:38:53.469Z,102389.16
2023-02-14T01:44:02.305Z,102390.84
2023-02-14T01:49:13.116Z,102388.25
2023-02-14T01:54:15.008Z,102393.31
2023-02-14T01:59:20.822Z,102394.63
2023-02-14T02:04:30.427Z,102397.56
2023-02-14T02:09:50.662Z,102392.03
2023-02-14T02:14:55.418Z,102389.56
2023-02-14T02:20:16.765Z,102394.03
2023-02-14T02:25:47.423Z,102387.25
2023-02-14T02:31:10.030Z,102373.56
2023-02-14T02:36:11.448Z,102366.91
2023-02-14T02:41:34.001Z,102372.56
2023-02-14T02:46:48.348Z,102371.66
2023-02-14T02:52:14.729Z,102371.31
2023-02-14T02:57:23.708Z,102360.09
2023-02-14T03:03:00.758Z,102355.41
2023-02-14T03:08:03.898Z,102354.59
2023-02-14T03:13:30.838Z,102368.09
2023-02-14T03:19:14.413Z,102358.72
2023-02-14T03:24:31.546Z,102363.63
2023-02-14T03:29:50.483Z,102363.53
2023-02-14T03:34:59.241Z,102376.38
2023-02-14T03:40:13.295Z,102376.59
2023-02-14T03:45:22.571Z,102370.00
2023-02-14T03:50:25.475Z,102373.34
2023-02-14T03:55:35.186Z,102374.84
2023-02-14T04:00:41.043Z,102376.72
2023-02-14T04:05:46.765Z,102381.38
2023-02-14T04:10:49.059Z,102387.63
2023-02-14T04:15:50.563Z,102393.56
2023-02-14T04:20:52.153Z,102375.22
2023-02-14T04:25:53.601Z,102379.22
2023-02-14T04:30:55.377Z,102381.00
2023-02-14T04:35:56.951Z,102376.69
2023-02-14T04:40:58.605Z,102380.97
2023-02-14T04:46:00.216Z,102373.22
2023-02-14T04:51:01.872Z,102367.13
2023-02-14T04:56:03.511Z,102372.59
2023-02-14T05:01:05.025Z,102361.31
2023-02-14T05:06:06.540Z,102353.94
2023-02-14T05:11:07.988Z,102353.88
2023-02-14T05:16:09.525Z,102350.69
2023-02-14T05:21:11.566Z,102349.72
2023-02-14T05:26:13.016Z,102356.66
2023-02-14T05:31:14.694Z,102365.72
2023-02-14T05:36:16.302Z,102367.25
2023-02-14T05:41:17.987Z,102368.09
2023-02-14T05:46:19.392Z,102377.59
2023-02-14T05:51:20.798Z,102382.91
2023-02-14T05:56:22.192Z,102383.25
2023-02-14T06:01:23.647Z,102385.97
2023-02-14T06:06:25.137Z,102391.22
2023-02-14T06:11:26.558Z,102389.41
2023-02-14T06:16:28.056Z,102397.22
2023-02-14T06:21:29.538Z,102396.91
2023-02-14T06:26:31.159Z,102398.66
2023-02-14T06:31:32.820Z,102405.91
2023-02-14T06:36:34.946Z,102407.09
2023-02-14T06:41:36.854Z,102409.00
2023-02-14T06:46:38.268Z,102420.31
2023-02-14T06:51:39.728Z,102416.53
2023-02-14T06:56:41.168Z,102418.44
2023-02-14T07:01:42.851Z,102415.53
2023-02-14T07:06:46.340Z,102412.47
2023-02-14T07:11:48.104Z,102420.88
2023-02-14T07:16:49.623Z,102407.19
2023-02-14T07:21:51.151Z,102403.84
2023-02-14T07:26:52.758Z,102403.31
2023-02-14T07:31:54.531Z,102410.81
2023-02-14T07:36:56.115Z,102407.69
2023-02-14T07:41:57.611Z,102412.97
2023-02-14T07:46:59.255Z,102405.69
2023-02-14T07:52:01.054Z,102407.19
2023-02-14T07:57:02.943Z,102416.13
2023-02-14T08:02:04.492Z,102421.72
2023-02-14T08:07:05.954Z,102412.78
2023-02-14T08:12:26.163Z,102414.78
2023-02-14T08:17:27.677Z,102406.34
2023-02-14T08:22:29.162Z,102412.06
2023-02-14T08:27:30.593Z,102409.53
2023-02-14T08:32:32.318Z,102410.03
2023-02-14T08:37:34.224Z,102409.97
2023-02-14T08:42:35.813Z,102419.16
2023-02-14T08:47:38.605Z,102415.28
2023-02-14T08:52:41.613Z,102417.75
2023-02-14T08:57:43.025Z,102409.91
2023-02-14T09:02:44.541Z,102420.31
2023-02-14T09:07:46.138Z,102425.09
2023-02-14T09:12:47.691Z,102425.47
2023-02-14T09:17:49.329Z,102419.84
2023-02-14T09:22:51.071Z,102418.13
2023-02-14T09:27:52.988Z,102404.38
2023-02-14T09:32:54.589Z,102401.75
2023-02-14T09:37:56.124Z,102407.16
2023-02-14T09:43:31.152Z,102397.69
2023-02-14T09:48:38.376Z,102401.97
2023-02-14T09:53:53.744Z,102391.25
2023-02-14T09:59:05.062Z,102386.72
2023-02-14T10:04:30.181Z,102390.94
2023-02-14T10:09:50.502Z,102376.34
2023-02-14T10:14:56.158Z,102375.63
2023-02-14T10:20:01.260Z,102385.13
2023-02-14T10:25:36.670Z,102383.41
2023-02-14T10:30:40.449Z,102384.56
2023-02-14T10:36:00.644Z,102378.09
2023-02-14T10:41:05.240Z,102373.22
2023-02-14T10:46:22.351Z,102368.09
2023-02-14T10:51:34.056Z,102361.63
2023-02-14T10:56:43.379Z,102357.50
2023-02-14T11:01:46.010Z,102358.69
2023-02-14T11:06:49.340Z,102354.00
2023-02-14T11:11:54.538Z,102347.50
2023-02-14T11:16:57.776Z,102339.63
2023-02-14T11:22:00.477Z,102325.59
2023-02-14T11:27:03.617Z,102316.56
2023-02-14T11:32:11.063Z,102306.47
2023-02-14T11:37:21.735Z,102306.47
2023-02-14T11:42:41.760Z,102298.41
2023-02-14T11:47:43.299Z,102293.09
2023-02-14T11:52:54.084Z,102292.69
2023-02-14T11:57:57.653Z,102278.84
2023-02-14T12:03:03.428Z,102273.13
2023-02-14T12:08:08.172Z,102264.50
2023-02-14T12:19:41.226Z,102254.75
2023-02-14T12:24:58.647Z,102251.91
2023-02-14T12:30:15.681Z,102247.66
2023-02-14T12:35:42.169Z,102238.84
2023-02-14T12:41:06.778Z,102223.91
2023-02-14T12:46:30.935Z,102231.00
2023-02-14T12:51:58.688Z,102219.84
2023-02-14T12:57:12.705Z,102218.84
2023-02-14T13:02:35.968Z,102211.97
2023-02-14T13:08:10.247Z,102201.09
2023-02-14T13:13:25.864Z,102198.91
2023-02-14T13:18:36.211Z,102192.81
2023-02-14T13:23:44.274Z,102189.06
2023-02-14T13:29:01.918Z,102168.91
2023-02-14T13:34:09.092Z,102160.78
2023-02-14T13:39:18.344Z,102159.66
2023-02-14T13:44:38.665Z,102160.47
2023-02-14T13:49:48.927Z,102151.84
2023-02-14T13:54:50.517Z,102148.16
2023-02-14T14:00:17.041Z,102142.53
2023-02-14T14:05:30.840Z,102140.31
2023-02-14T14:10:55.484Z,102134.16
2023-02-14T14:16:20.620Z,102129.81
2023-02-14T14:21:30.787Z,102123.06
2023-02-14T14:26:39.968Z,102121.75
2023-02-14T14:31:41.825Z,102114.19
2023-02-14T14:36:44.003Z,102115.94
2023-02-14T14:41:45.475Z,102113.66
2023-02-14T14:46:47.133Z,102105.97
2023-02-14T14:51:49.142Z,102096.88
2023-02-14T14:57:01.883Z,102095.25
2023-02-14T15:02:21.813Z,102086.13
2023-02-14T15:07:32.752Z,102075.16
2023-02-14T15:12:53.763Z,102068.47
2023-02-14T15:18:00.907Z,102077.00
2023-02-14T15:23:05.275Z,102077.91
2023-02-14T15:28:07.251Z,102073.72
2023-02-14T15:33:14.538Z,102084.69
2023-02-14T15:38:16.391Z,102077.00
2023-02-14T15:43:18.384Z,102071.41
2023-02-14T15:48:40.392Z,102077.69
2023-02-14T15:53:51.218Z,102073.88
2023-02-14T15:59:12.346Z,102081.81
2023-02-14T16:04:13.991Z,102065.44
2023-02-14T16:09:27.556Z,102079.25
2023-02-14T16:14:32.391Z,102078.84
2023-02-14T16:19:38.914Z,102079.25
2023-02-14T16:24:42.045Z,102070.31
2023-02-14T16:29:43.568Z,102075.78
2023-02-14T16:34:47.455Z,102078.78
2023-02-14T16:39:51.587Z,102078.41
2023-02-14T16:44:53.561Z,102073.88
2023-02-14T16:49:55.279Z,102087.84
2023-02-14T16:54:57.304Z,102094.97
2023-02-14T16:59:58.959Z,102094.81
2023-02-14T17:05:00.511Z,102095.50
2023-02-14T17:10:07.426Z,102106.13
2023-02-14T17:15:15.169Z,102104.22
2023-02-14T17:20:19.326Z,102100.72
2023-02-14T17:25:21.072Z,102108.94
2023-02-14T17:30:23.095Z,102110.38
2023-02-14T17:35:24.603Z,102120.28
2023-02-14T17:40:28.030Z,102116.63
2023-02-14T17:45:29.653Z,102112.09
2023-02-14T17:50:31.221Z,102109.34
2023-02-14T17:55:35.693Z,102107.50
2023-02-14T18:00:37.184Z,102101.44
2023-02-14T18:05:38.647Z,102097.81
2023-02-14T18:10:40.080Z,102094.41
2023-02-14T18:15:41.501Z,102090.97
2023-02-14T18:20:43.250Z,102090.84
2023-02-14T18:25:50.420Z,102091.56
2023-02-14T18:30:53.109Z,102082.97
2023-02-14T18:35:54.572Z,102084.47
2023-02-14T18:40:56.021Z,102080.06
2023-02-14T18:46:06.121Z,102082.16
2023-02-14T18:51:14.127Z,102074.84
2023-02-14T18:56:18.660Z,102076.44
2023-02-14T19:01:23.390Z,102071.03
2023-02-14T19:06:25.805Z,102076.28
2023-02-14T19:11:31.416Z,102077.66
2023-02-14T19:16:34.059Z,102079.84
2023-02-14T19:21:35.633Z,102081.94
2023-02-14T19:26:40.606Z,102073.78
2023-02-14T19:31:45.101Z,102073.78
2023-02-14T19:36:48.045Z,102068.91
2023-02-14T19:41:51.240Z,102061.66
2023-02-14T19:46:56.671Z,102050.41
2023-02-14T19:51:58.901Z,102047.34
2023-02-14T19:57:00.311Z,102047.63
2023-02-14T20:02:01.872Z,102028.09
2023-02-14T20:07:04.860Z,102028.09
2023-02-14T20:12:06.815Z,102022.38
2023-02-14T20:17:08.291Z,102027.50
2023-02-14T20:22:09.749Z,102015.69
2023-02-14T20:27:11.970Z,102007.97
2023-02-14T20:32:15.862Z,102003.06
2023-02-14T20:37:17.864Z,101997.22
2023-02-14T20:42:19.555Z,101994.88
2023-02-14T20:47:21.119Z,101988.97
2023-02-14T20:52:22.779Z,101984.81
2023-02-14T20:57:25.309Z,101984.84
2023-02-14T21:02:27.340Z,101973.78
2023-02-14T21:07:31.244Z,101967.97
2023-02-14T21:12:32.750Z,101964.88
2023-02-14T21:17:34.214Z,101970.06
2023-02-14T21:22:35.611Z,101962.59
2023-02-14T21:27:38.282Z,101967.06
2023-02-14T21:32:39.806Z,101966.28
2023-02-14T21:37:41.431Z,101965.34
2023-02-14T21:42:43.823Z,101959.44
2023-02-14T21:48:05.495Z,101958.56
2023-02-14T21:53:07.691Z,101958.63
2023-02-14T21:58:09.111Z,101952.69
2023-02-14T22:03:12.330Z,101950.03
2023-02-14T22:08:15.413Z,101954.91
2023-02-14T22:13:16.845Z,101948.84
2023-02-14T22:18:18.812Z,101954.63
2023-02-14T22:23:21.112Z,101952.16
2023-02-14T22:28:23.105Z,101948.09
2023-02-14T22:33:24.578Z,101948.94
2023-02-14T22:38:26.657Z,101943.19
2023-02-14T22:43:28.732Z,101936.59
2023-02-14T22:48:32.412Z,101943.25
2023-02-14T22:53:35.117Z,101936.38
2023-02-14T22:58:37.067Z,101942.06
2023-02-14T23:03:38.580Z,101937.88
2023-02-14T23:08:45.601Z,101944.66
2023-02-14T23:14:21.151Z,101945.31
2023-02-14T23:19:47.328Z,101943.66
2023-02-14T23:24:50.330Z,101947.09
2023-02-14T23:29:51.879Z,101943.72
2023-02-14T23:34:53.876Z,101951.31
2023-02-14T23:39:55.582Z,101944.75
2023-02-14T23:45:17.444Z,101940.50
2023-02-14T23:50:19.168Z,101931.34
2023-02-14T23:55:22.258Z,101933.44
